Time;durP1;ratioP1;P1;durP2;ratioP2;P2;SDS_P1;SDS_P2;PMS_P1;PMS_P2;Temp;Humidity;BMP_temperature;BMP_pressure;BME280_temperature;BME280_humidity;BME280_pressure;Samples;Min_cycle;Max_cycle;Signal;HPM_P1;HPM_P2
2022/06/12 00:00:25;;;;;;;7.63;5.43;;;18.50;99.90;;;;;;5224770;28;20441;-50
2022/06/12 00:02:57;;;;;;;9.10;6.43;;;18.50;99.90;;;;;;5215180;28;20453;-49
2022/06/12 00:05:31;;;;;;;6.60;5.83;;;18.40;99.90;;;;;;5225329;28;20833;-49
2022/06/12 00:08:03;;;;;;;6.60;5.97;;;18.40;99.90;;;;;;5194636;28;20438;-49
2022/06/12 00:10:35;;;;;;;5.73;4.93;;;18.40;99.90;;;;;;5199747;28;20435;-52
2022/06/12 00:13:07;;;;;;;8.17;5.80;;;18.40;99.90;;;;;;5200644;28;20786;-51
2022/06/12 00:15:38;;;;;;;11.33;6.07;;;18.40;99.90;;;;;;5206298;28;20479;-50
2022/06/12 00:18:09;;;;;;;11.10;6.30;;;18.30;99.90;;;;;;5205257;28;20466;-51
2022/06/12 00:20:40;;;;;;;7.07;5.80;;;18.30;99.90;;;;;;5177704;28;20184;-49
2022/06/12 00:23:13;;;;;;;6.93;5.60;;;18.30;99.90;;;;;;5195518;28;20439;-49
2022/06/12 00:25:44;;;;;;;11.40;6.13;;;18.30;99.90;;;;;;5204415;28;20648;-49
2022/06/12 00:28:14;;;;;;;9.23;5.60;;;18.20;99.90;;;;;;5191116;28;20475;-50
2022/06/12 00:30:45;;;;;;;6.70;6.10;;;18.20;99.90;;;;;;5204148;28;20554;-50
2022/06/12 00:33:16;;;;;;;6.93;6.33;;;18.20;99.90;;;;;;5205090;28;20214;-50
2022/06/12 00:35:46;;;;;;;9.93;6.47;;;18.10;99.90;;;;;;5205548;28;20218;-50
2022/06/12 00:38:17;;;;;;;7.20;6.50;;;18.10;99.90;;;;;;5202535;28;20558;-50
2022/06/12 00:40:48;;;;;;;10.27;6.07;;;18.10;99.90;;;;;;5205387;28;20183;-48
2022/06/12 00:43:19;;;;;;;10.40;5.80;;;18.10;99.90;;;;;;5203322;28;20176;-48
2022/06/12 00:45:59;;;;;;;5.80;5.30;;;18.00;99.90;;;;;;5198995;28;20186;-49
2022/06/12 00:48:33;;;;;;;10.43;6.83;;;18.00;99.90;;;;;;5205389;28;20442;-47
2022/06/12 00:51:17;;;;;;;6.63;6.10;;;18.00;99.90;;;;;;5205998;28;20948;-48
2022/06/12 00:53:52;;;;;;;7.23;6.17;;;17.90;99.90;;;;;;5206247;28;20430;-47
2022/06/12 00:56:27;;;;;;;11.73;6.57;;;17.90;99.90;;;;;;5200163;28;20465;-49
2022/06/12 00:59:11;;;;;;;10.80;6.50;;;17.90;99.90;;;;;;5200337;28;20445;-47
2022/06/12 01:01:46;;;;;;;6.80;6.03;;;17.80;99.90;;;;;;5203660;28;20435;-47
2022/06/12 01:07:13;;;;;;;7.20;6.37;;;17.80;99.90;;;;;;5202508;28;20450;-48
2022/06/12 01:09:47;;;;;;;7.50;6.80;;;17.80;99.90;;;;;;5205805;28;20426;-47
2022/06/12 01:12:22;;;;;;;6.17;5.63;;;17.70;99.90;;;;;;5191887;28;20442;-48
2022/06/12 01:15:01;;;;;;;9.43;6.03;;;17.70;99.90;;;;;;5198279;28;20529;-48
2022/06/12 01:17:31;;;;;;;11.43;7.07;;;17.70;99.90;;;;;;5197876;28;20537;-47
2022/06/12 01:20:08;;;;;;;11.60;6.87;;;17.60;99.90;;;;;;5204002;28;20426;-47
2022/06/12 01:22:57;;;;;;;7.70;6.53;;;17.60;99.90;;;;;;5203136;28;20551;-47
2022/06/12 01:25:46;;;;;;;7.13;6.40;;;17.60;99.90;;;;;;5195209;28;20458;-49
2022/06/12 01:28:44;;;;;;;6.83;6.13;;;17.50;99.90;;;;;;5197342;28;20517;-56
2022/06/12 01:32:06;;;;;;;9.27;7.47;;;17.50;99.90;;;;;;5205657;28;20426;-47
2022/06/12 01:34:40;;;;;;;10.10;7.33;;;17.50;99.90;;;;;;5197403;28;20441;-48
2022/06/12 01:37:13;;;;;;;9.67;6.20;;;17.50;99.90;;;;;;5200716;28;20457;-47
2022/06/12 01:39:59;;;;;;;10.60;7.17;;;17.50;99.90;;;;;;5205208;28;20856;-49
2022/06/12 01:42:32;;;;;;;9.67;7.20;;;17.60;99.90;;;;;;5204170;28;20473;-48
2022/06/12 01:45:12;;;;;;;8.57;6.50;;;17.60;99.90;;;;;;5203886;28;20465;-48
2022/06/12 01:48:07;;;;;;;11.43;6.93;;;17.60;99.90;;;;;;5192787;28;20462;-47
2022/06/12 01:51:05;;;;;;;6.87;6.17;;;17.60;99.90;;;;;;5204708;28;20438;-47
2022/06/12 01:53:58;;;;;;;7.30;6.60;;;17.50;99.90;;;;;;5204154;28;20882;-47
2022/06/12 01:56:38;;;;;;;6.40;5.90;;;17.50;99.90;;;;;;5195450;28;20485;-54
2022/06/12 01:59:26;;;;;;;9.03;6.70;;;17.50;99.90;;;;;;5203290;28;20870;-54
2022/06/12 02:02:09;;;;;;;7.00;6.10;;;17.50;99.90;;;;;;5200727;28;20441;-54
2022/06/12 02:04:50;;;;;;;7.87;6.30;;;17.60;99.90;;;;;;5204070;28;20570;-53
2022/06/12 02:07:27;;;;;;;7.10;6.20;;;17.60;99.90;;;;;;5201381;28;20941;-51
2022/06/12 02:10:01;;;;;;;8.93;6.63;;;17.60;99.90;;;;;;5198777;28;20418;-53
2022/06/12 02:15:38;;;;;;;7.80;6.23;;;17.70;99.90;;;;;;5193705;28;20746;-52
2022/06/12 02:18:22;;;;;;;9.33;6.30;;;17.80;99.90;;;;;;5195858;28;20624;-54
2022/06/12 02:20:57;;;;;;;6.90;6.30;;;17.80;99.90;;;;;;5208306;28;20521;-55
2022/06/12 02:23:36;;;;;;;12.13;6.70;;;17.80;99.90;;;;;;5205925;28;20444;-50
2022/06/12 02:26:14;;;;;;;7.27;6.60;;;17.80;99.90;;;;;;5198535;28;20451;-50
2022/06/12 02:28:52;;;;;;;9.60;7.17;;;17.80;99.90;;;;;;5205447;28;20442;-53
2022/06/12 02:31:34;;;;;;;15.23;6.87;;;17.80;99.90;;;;;;5209114;28;20421;-54
2022/06/12 02:34:12;;;;;;;8.23;7.00;;;17.80;99.90;;;;;;5201118;28;20450;-54
2022/06/12 02:36:47;;;;;;;7.93;6.30;;;17.80;99.90;;;;;;5196905;28;20950;-54
2022/06/12 02:39:23;;;;;;;10.80;6.67;;;17.80;99.90;;;;;;5201049;28;20884;-54
2022/06/12 02:42:01;;;;;;;12.67;6.53;;;17.70;99.90;;;;;;5207226;28;20425;-54
2022/06/12 02:44:47;;;;;;;8.67;6.77;;;17.80;99.90;;;;;;5199285;28;20813;-54
2022/06/12 02:47:25;;;;;;;15.53;6.70;;;17.70;99.90;;;;;;5196175;28;20455;-53
2022/06/12 02:49:58;;;;;;;9.40;6.27;;;17.80;99.90;;;;;;5184255;28;20441;-49
2022/06/12 02:52:39;;;;;;;6.67;5.57;;;17.80;99.90;;;;;;5199497;28;20413;-50
2022/06/12 02:55:22;;;;;;;7.90;6.10;;;17.80;99.90;;;;;;5193492;28;20911;-50
2022/06/12 02:57:56;;;;;;;6.60;6.03;;;17.80;99.90;;;;;;5198266;28;20485;-51
2022/06/12 03:00:38;;;;;;;12.57;7.53;;;17.90;99.90;;;;;;5200779;28;20505;-49
2022/06/12 03:03:44;;;;;;;6.23;5.73;;;17.90;99.90;;;;;;5207139;28;20442;-50
2022/06/12 03:06:17;;;;;;;9.93;7.20;;;17.90;99.90;;;;;;5178328;28;20546;-50
2022/06/12 03:08:50;;;;;;;8.00;6.17;;;17.90;99.90;;;;;;5197133;28;20488;-49
2022/06/12 03:11:33;;;;;;;9.90;6.37;;;18.00;99.90;;;;;;5202617;28;20477;-49
2022/06/12 03:14:08;;;;;;;6.97;5.90;;;18.00;99.90;;;;;;5202827;28;20431;-50
2022/06/12 03:16:41;;;;;;;6.27;5.77;;;18.00;99.90;;;;;;5201352;28;20441;-49
2022/06/12 03:19:23;;;;;;;8.20;6.90;;;18.00;99.90;;;;;;5194989;28;20419;-50
2022/06/12 03:22:10;;;;;;;15.30;5.97;;;18.00;99.90;;;;;;5197479;28;20762;-48
2022/06/12 03:24:53;;;;;;;12.03;6.90;;;17.90;99.90;;;;;;5206618;28;20520;-50
2022/06/12 03:27:29;;;;;;;7.80;6.47;;;17.90;99.90;;;;;;5194178;28;20468;-50
2022/06/12 03:30:16;;;;;;;7.60;6.30;;;17.80;99.90;;;;;;5195123;28;20784;-48
2022/06/12 03:33:45;;;;;;;13.77;6.97;;;17.80;99.90;;;;;;5195733;28;20489;-48
2022/06/12 03:36:27;;;;;;;12.53;6.97;;;17.70;99.90;;;;;;5155448;28;20521;-50
2022/06/12 03:39:06;;;;;;;6.83;6.20;;;17.70;99.90;;;;;;5200154;28;20525;-50
2022/06/12 03:41:47;;;;;;;6.60;6.00;;;17.80;99.90;;;;;;5202880;28;20445;-48
2022/06/12 03:44:34;;;;;;;7.47;6.50;;;17.90;99.90;;;;;;5202354;28;20439;-50
2022/06/12 03:47:17;;;;;;;5.97;5.57;;;17.90;99.90;;;;;;5191137;28;20450;-49
2022/06/12 03:49:57;;;;;;;6.93;6.27;;;18.00;99.90;;;;;;5201085;28;20494;-49
2022/06/12 03:52:43;;;;;;;6.53;5.77;;;18.10;99.90;;;;;;5191695;28;20433;-49
2022/06/12 03:58:26;;;;;;;15.63;6.50;;;18.20;99.90;;;;;;5205235;28;20452;-49
2022/06/12 04:00:58;;;;;;;7.40;6.57;;;18.10;99.90;;;;;;5197006;28;20434;-50
2022/06/12 04:03:34;;;;;;;7.10;6.50;;;17.90;99.90;;;;;;5193820;28;20516;-52
2022/06/12 04:06:14;;;;;;;8.20;7.50;;;17.50;99.90;;;;;;5199197;28;20472;-50
2022/06/12 04:08:53;;;;;;;10.40;9.30;;;17.20;99.90;;;;;;5204336;28;20431;-49
2022/06/12 04:11:26;;;;;;;13.37;10.07;;;17.00;99.90;;;;;;5201036;28;20477;-50
2022/06/12 04:13:58;;;;;;;12.10;8.50;;;16.70;99.90;;;;;;5201674;28;20443;-49
2022/06/12 04:16:34;;;;;;;9.00;8.30;;;16.60;99.90;;;;;;5203932;28;20820;-50
2022/06/12 04:19:07;;;;;;;9.27;8.40;;;16.50;99.90;;;;;;5200040;28;20813;-50
2022/06/12 04:21:43;;;;;;;13.47;8.47;;;16.50;99.90;;;;;;5203154;28;20435;-50
2022/06/12 04:24:25;;;;;;;11.43;8.53;;;16.50;99.90;;;;;;5195122;28;20435;-54
2022/06/12 04:27:03;;;;;;;10.87;8.57;;;16.60;99.90;;;;;;5205143;28;20954;-54
2022/06/12 04:29:39;;;;;;;10.00;8.93;;;16.70;99.90;;;;;;5198821;28;20438;-53
2022/06/12 04:32:10;;;;;;;16.20;10.07;;;17.00;99.90;;;;;;5195429;28;20446;-49
2022/06/12 04:34:42;;;;;;;12.77;9.20;;;17.40;99.90;;;;;;5202196;28;20422;-50
2022/06/12 04:37:18;;;;;;;14.30;9.40;;;17.70;99.90;;;;;;5199146;28;20341;-50
2022/06/12 04:39:50;;;;;;;12.10;9.47;;;17.90;99.90;;;;;;5197609;28;20791;-51
2022/06/12 04:42:23;;;;;;;8.90;7.53;;;18.00;99.90;;;;;;5206804;28;20454;-52
2022/06/12 04:44:54;;;;;;;12.33;8.77;;;18.10;99.90;;;;;;5204764;28;20906;-50
2022/06/12 04:47:25;;;;;;;9.53;8.20;;;17.90;99.90;;;;;;5205926;28;20457;-50
2022/06/12 04:49:56;;;;;;;11.83;9.90;;;17.90;99.90;;;;;;5203380;28;20184;-51
2022/06/12 04:52:27;;;;;;;15.67;10.07;;;17.60;99.90;;;;;;5200606;28;20514;-50
2022/06/12 04:54:57;;;;;;;16.43;9.90;;;17.20;99.90;;;;;;5199098;28;20180;-51
2022/06/12 04:57:29;;;;;;;16.40;12.23;;;17.10;99.90;;;;;;5215152;28;20238;-48
2022/06/12 05:00:00;;;;;;;11.67;9.90;;;17.10;99.90;;;;;;5198777;28;20203;-47
2022/06/12 05:02:30;;;;;;;10.83;9.23;;;16.90;99.90;;;;;;5205281;28;20464;-48
2022/06/12 05:05:01;;;;;;;11.30;10.10;;;16.80;99.90;;;;;;5208708;28;20244;-48
2022/06/12 05:07:32;;;;;;;11.03;9.93;;;16.90;99.90;;;;;;5194780;28;20684;-48
2022/06/12 05:10:03;;;;;;;13.60;10.43;;;17.10;99.90;;;;;;5204812;28;20187;-48
2022/06/12 05:12:34;;;;;;;12.80;11.10;;;17.10;99.90;;;;;;5202460;28;20273;-49
2022/06/12 05:15:05;;;;;;;19.37;12.40;;;17.20;99.90;;;;;;5205002;28;20430;-48
2022/06/12 05:17:36;;;;;;;18.43;12.07;;;17.20;99.90;;;;;;5195724;28;20200;-48
2022/06/12 05:20:12;;;;;;;17.83;11.27;;;17.20;99.90;;;;;;5204506;28;20473;-48
2022/06/12 05:22:43;;;;;;;16.47;12.43;;;17.30;99.90;;;;;;5195359;28;20218;-48
2022/06/12 05:25:16;;;;;;;16.37;11.73;;;17.40;99.90;;;;;;5195616;28;20470;-48
2022/06/12 05:27:47;;;;;;;11.63;9.90;;;17.30;99.90;;;;;;5204475;28;20234;-48
2022/06/12 05:30:22;;;;;;;27.47;12.47;;;17.40;99.90;;;;;;5204793;28;20438;-48
2022/06/12 05:32:57;;;;;;;13.93;12.13;;;17.60;99.90;;;;;;5203250;28;20430;-49
2022/06/12 05:35:29;;;;;;;15.50;11.80;;;17.60;99.90;;;;;;5195099;28;20529;-47
2022/06/12 05:38:00;;;;;;;15.33;13.30;;;17.50;99.90;;;;;;5205007;28;20966;-49
2022/06/12 05:40:36;;;;;;;19.23;12.97;;;17.30;99.90;;;;;;5204350;28;20430;-48
2022/06/12 05:43:06;;;;;;;12.57;11.37;;;17.30;99.90;;;;;;5203779;28;20426;-48
2022/06/12 05:45:37;;;;;;;15.47;11.57;;;17.30;99.90;;;;;;5203758;28;20793;-47
2022/06/12 05:48:18;;;;;;;13.37;11.57;;;17.40;99.90;;;;;;5195316;28;20195;-47
2022/06/12 05:50:57;;;;;;;22.60;12.10;;;17.60;99.90;;;;;;5206436;28;20180;-50
2022/06/12 05:53:30;;;;;;;10.87;9.80;;;17.80;99.90;;;;;;5201918;28;20427;-47
2022/06/12 05:56:01;;;;;;;16.00;10.10;;;18.00;99.90;;;;;;5201435;28;20450;-53
2022/06/12 05:58:32;;;;;;;13.77;10.10;;;18.20;99.90;;;;;;5208159;28;20527;-54
2022/06/12 06:01:04;;;;;;;16.80;11.20;;;18.40;99.90;;;;;;5204427;28;20176;-55
2022/06/12 06:03:36;;;;;;;11.30;9.70;;;18.60;99.90;;;;;;5205141;28;20511;-53
2022/06/12 06:06:09;;;;;;;18.40;10.47;;;18.60;99.90;;;;;;5203855;28;20921;-53
2022/06/12 06:08:40;;;;;;;19.00;10.27;;;18.80;99.90;;;;;;5204304;28;20923;-54
2022/06/12 06:11:11;;;;;;;12.93;9.60;;;19.20;99.90;;;;;;5196733;28;20468;-55
2022/06/12 06:13:41;;;;;;;18.77;8.83;;;19.90;99.90;;;;;;5200769;28;20262;-54
2022/06/12 06:16:12;;;;;;;9.33;7.40;;;20.10;99.90;;;;;;5195512;28;20204;-54
2022/06/12 06:18:43;;;;;;;10.50;8.30;;;20.20;99.90;;;;;;5203038;28;20554;-54
2022/06/12 06:21:15;;;;;;;9.23;7.60;;;20.20;99.90;;;;;;5203338;28;20167;-51
2022/06/12 06:23:46;;;;;;;9.90;6.90;;;20.10;99.90;;;;;;5202527;28;20671;-49
2022/06/12 06:26:17;;;;;;;7.47;6.77;;;20.00;99.90;;;;;;5207929;28;20430;-50
2022/06/12 06:28:52;;;;;;;8.17;7.23;;;19.80;99.90;;;;;;5207958;28;20241;-50
2022/06/12 06:31:23;;;;;;;9.57;7.00;;;19.80;99.90;;;;;;5199554;28;20429;-50
2022/06/12 06:33:55;;;;;;;14.73;8.30;;;19.60;99.90;;;;;;5195493;28;20520;-49
2022/06/12 06:36:25;;;;;;;11.37;8.90;;;19.40;99.90;;;;;;5207609;28;20541;-50
2022/06/12 06:38:57;;;;;;;14.27;8.90;;;19.50;99.90;;;;;;5205949;28;20550;-51
2022/06/12 06:41:28;;;;;;;7.63;6.93;;;19.90;99.90;;;;;;5212437;28;20183;-50
2022/06/12 06:46:49;;;;;;;8.50;7.03;;;21.40;99.90;;;;;;5210181;28;20433;-50
2022/06/12 06:49:21;;;;;;;7.03;5.43;;;21.70;99.90;;;;;;5205896;28;20522;-53
2022/06/12 06:51:51;;;;;;;5.33;4.83;;;21.90;99.90;;;;;;5192469;28;20450;-54
2022/06/12 06:54:22;;;;;;;6.63;5.90;;;22.30;99.90;;;;;;5204965;28;20430;-49
2022/06/12 06:56:53;;;;;;;6.23;5.63;;;23.10;99.90;;;;;;5202956;28;20210;-50
2022/06/12 06:59:23;;;;;;;8.33;6.70;;;23.70;99.90;;;;;;5203599;28;20243;-51
2022/06/12 07:01:54;;;;;;;6.30;5.60;;;23.70;99.90;;;;;;5189756;28;20183;-49
2022/06/12 07:04:26;;;;;;;7.07;6.00;;;23.30;99.90;;;;;;5209754;28;20187;-48
2022/06/12 07:06:57;;;;;;;5.90;5.50;;;23.10;99.90;;;;;;5208951;28;20204;-51
2022/06/12 07:09:27;;;;;;;5.67;4.80;;;23.20;99.90;;;;;;5206351;28;20453;-50
2022/06/12 07:11:58;;;;;;;12.00;5.60;;;23.10;99.90;;;;;;5205451;28;20238;-50
2022/06/12 07:14:29;;;;;;;7.50;5.77;;;23.00;99.90;;;;;;5207501;28;20283;-50
2022/06/12 07:17:00;;;;;;;6.20;4.60;;;22.90;99.90;;;;;;5202178;28;20353;-50
2022/06/12 07:19:32;;;;;;;5.70;5.20;;;22.80;99.90;;;;;;5205358;28;20434;-51
2022/06/12 07:22:03;;;;;;;6.60;5.13;;;22.50;99.90;;;;;;5201484;28;21036;-51
2022/06/12 07:24:34;;;;;;;6.53;5.93;;;22.20;99.90;;;;;;5206940;28;20460;-51
2022/06/12 07:27:05;;;;;;;7.23;6.50;;;21.90;99.90;;;;;;5196313;28;20243;-50
2022/06/12 07:29:36;;;;;;;9.57;7.60;;;21.70;99.90;;;;;;5203763;28;20266;-50
2022/06/12 07:32:07;;;;;;;8.03;6.90;;;21.40;99.90;;;;;;5198439;28;20824;-51
2022/06/12 07:34:38;;;;;;;8.70;6.83;;;21.20;99.90;;;;;;5202573;28;20632;-52
2022/06/12 07:37:08;;;;;;;11.60;8.07;;;21.00;99.90;;;;;;5202911;28;20462;-50
2022/06/12 07:39:39;;;;;;;17.30;7.10;;;20.80;99.90;;;;;;5199794;28;20184;-49
2022/06/12 07:42:10;;;;;;;11.07;7.27;;;20.70;99.90;;;;;;5190049;28;20521;-51
2022/06/12 07:44:41;;;;;;;8.87;7.93;;;20.60;99.90;;;;;;5202628;28;20429;-50
2022/06/12 07:47:11;;;;;;;7.23;5.93;;;20.60;99.90;;;;;;5200056;28;20688;-50
2022/06/12 07:49:42;;;;;;;4.93;4.53;;;20.70;99.90;;;;;;5200719;28;20211;-49
2022/06/12 07:52:13;;;;;;;6.30;5.70;;;21.20;99.90;;;;;;5207047;28;20620;-51
2022/06/12 07:54:44;;;;;;;6.13;5.30;;;21.70;99.90;;;;;;5201475;28;20176;-50
2022/06/12 07:57:14;;;;;;;6.10;5.57;;;23.20;99.90;;;;;;5204878;28;20973;-51
2022/06/12 07:59:45;;;;;;;6.00;4.80;;;25.50;96.00;;;;;;5206259;28;20305;-51
2022/06/12 08:02:16;;;;;;;4.10;3.90;;;25.60;89.40;;;;;;5196804;28;20673;-52
2022/06/12 08:04:47;;;;;;;4.13;3.70;;;24.90;83.30;;;;;;5205279;28;20540;-50
2022/06/12 08:07:17;;;;;;;3.00;2.80;;;24.30;86.50;;;;;;5205940;28;20211;-52
2022/06/12 08:09:48;;;;;;;3.67;2.60;;;24.00;87.40;;;;;;5206695;28;20196;-50
2022/06/12 08:12:19;;;;;;;3.77;3.57;;;23.80;82.70;;;;;;5202143;28;20211;-49
2022/06/12 08:14:49;;;;;;;3.40;3.00;;;23.30;84.70;;;;;;5188429;28;20183;-50
2022/06/12 08:17:20;;;;;;;3.90;3.30;;;23.00;90.10;;;;;;5205360;28;20223;-52
2022/06/12 08:22:40;;;;;;;3.67;3.47;;;24.20;89.50;;;;;;5208300;28;20187;-55
2022/06/12 08:25:11;;;;;;;3.90;2.93;;;24.80;85.60;;;;;;5204340;28;20426;-55
2022/06/12 08:27:41;;;;;;;3.77;3.47;;;25.00;79.70;;;;;;5192881;28;20204;-54
2022/06/12 08:30:13;;;;;;;3.83;3.00;;;25.00;77.00;;;;;;5193685;28;20602;-52
2022/06/12 08:32:47;;;;;;;6.33;3.20;;;25.10;75.90;;;;;;5200384;28;20192;-55
2022/06/12 08:35:25;;;;;;;5.20;2.43;;;25.20;72.90;;;;;;5198917;28;20504;-54
2022/06/12 08:37:56;;;;;;;2.80;2.30;;;25.50;70.30;;;;;;5202865;28;20473;-53
2022/06/12 08:40:37;;;;;;;4.03;2.40;;;26.20;66.80;;;;;;5202604;28;20442;-54
2022/06/12 08:43:31;;;;;;;3.40;2.37;;;28.00;58.00;;;;;;5204325;28;20475;-52
2022/06/12 08:46:18;;;;;;;3.10;2.13;;;29.20;51.50;;;;;;5196570;28;20547;-56
2022/06/12 08:48:57;;;;;;;5.30;2.30;;;28.90;49.50;;;;;;5204353;28;20430;-53
2022/06/12 08:51:39;;;;;;;3.30;1.97;;;28.10;51.10;;;;;;5193376;28;20779;-55
2022/06/12 08:54:18;;;;;;;2.93;1.70;;;27.30;52.10;;;;;;5205854;28;20441;-54
2022/06/12 08:57:05;;;;;;;4.83;2.20;;;26.80;53.60;;;;;;5205339;28;20541;-53
2022/06/12 08:59:39;;;;;;;2.67;2.07;;;26.70;53.80;;;;;;5192994;28;20434;-52
2022/06/12 09:02:28;;;;;;;2.83;2.50;;;26.70;54.60;;;;;;5201928;28;20434;-55
2022/06/12 09:05:00;;;;;;;1.80;1.70;;;26.20;55.50;;;;;;5202144;28;20876;-56
2022/06/12 09:07:52;;;;;;;3.40;2.03;;;26.30;55.90;;;;;;5204779;28;20462;-54
2022/06/12 09:10:43;;;;;;;1.30;1.20;;;26.70;54.00;;;;;;5201363;28;20935;-56
2022/06/12 09:13:41;;;;;;;2.57;2.37;;;27.40;53.00;;;;;;5201425;28;20443;-55
2022/06/12 09:16:20;;;;;;;5.20;3.20;;;27.60;52.70;;;;;;5197390;28;20486;-55
2022/06/12 09:19:26;;;;;;;3.10;2.87;;;28.00;52.10;;;;;;5201715;28;20462;-56
2022/06/12 09:22:13;;;;;;;1.53;1.53;;;27.70;51.40;;;;;;5197738;28;20842;-54
2022/06/12 09:24:51;;;;;;;3.73;2.47;;;27.50;52.00;;;;;;5194285;28;20447;-56
2022/06/12 09:27:45;;;;;;;2.20;2.03;;;27.00;52.10;;;;;;5186827;28;20950;-54
2022/06/12 09:30:53;;;;;;;4.00;2.90;;;26.30;52.50;;;;;;5199550;28;20910;-55
2022/06/12 09:33:35;;;;;;;2.10;1.93;;;25.50;53.60;;;;;;5186126;28;20489;-55
2022/06/12 09:36:26;;;;;;;7.10;2.50;;;25.20;55.10;;;;;;5199602;28;20570;-54
2022/06/12 09:39:13;;;;;;;2.60;2.40;;;25.10;56.00;;;;;;5205150;28;20541;-55
2022/06/12 09:41:44;;;;;;;3.63;2.27;;;25.10;55.60;;;;;;5184191;28;20423;-55
2022/06/12 09:44:25;;;;;;;8.80;2.77;;;25.70;55.30;;;;;;5201017;28;20434;-53
2022/06/12 09:47:14;;;;;;;7.17;2.70;;;26.30;54.60;;;;;;5201543;28;20199;-54
2022/06/12 09:50:16;;;;;;;2.63;2.43;;;26.80;53.20;;;;;;5196726;28;20437;-54
2022/06/12 09:53:25;;;;;;;9.20;2.80;;;26.60;53.40;;;;;;5188379;28;20441;-55
2022/06/12 09:56:02;;;;;;;8.77;5.40;;;26.90;53.00;;;;;;5188212;28;20466;-54
2022/06/12 09:58:51;;;;;;;3.20;2.80;;;27.40;52.40;;;;;;5202072;28;20458;-55
2022/06/12 10:01:30;;;;;;;4.33;2.80;;;27.30;52.00;;;;;;5201004;28;20434;-55
2022/06/12 10:04:13;;;;;;;10.70;4.60;;;26.70;52.80;;;;;;5199439;28;20491;-55
2022/06/12 10:06:49;;;;;;;3.30;2.97;;;26.70;53.40;;;;;;5204608;28;20446;-56
2022/06/12 10:09:45;;;;;;;3.63;2.77;;;27.10;53.50;;;;;;5201380;28;20429;-55
2022/06/12 10:12:29;;;;;;;6.50;2.80;;;26.80;51.50;;;;;;5201221;28;20439;-55
2022/06/12 10:15:08;;;;;;;6.70;2.93;;;26.30;51.70;;;;;;5195462;28;20493;-55
2022/06/12 10:17:52;;;;;;;5.83;2.47;;;26.20;53.10;;;;;;5204220;28;20484;-53
2022/06/12 10:20:29;;;;;;;8.70;3.33;;;26.10;53.10;;;;;;5197324;28;20522;-56
2022/06/12 10:23:00;;;;;;;2.87;2.60;;;26.20;54.00;;;;;;5199341;28;20438;-55
2022/06/12 10:25:38;;;;;;;2.60;2.40;;;26.50;53.30;;;;;;5200998;28;20430;-56
2022/06/12 10:28:14;;;;;;;5.87;2.60;;;26.60;53.20;;;;;;5198435;28;20442;-52
2022/06/12 10:30:58;;;;;;;4.20;2.90;;;26.80;52.30;;;;;;5199107;28;20434;-55
2022/06/12 10:33:42;;;;;;;6.97;4.80;;;27.00;52.30;;;;;;5201928;28;20447;-55
2022/06/12 10:36:20;;;;;;;14.57;6.90;;;27.40;51.90;;;;;;5194069;28;20449;-54
2022/06/12 10:39:01;;;;;;;5.83;4.20;;;27.70;52.10;;;;;;5202562;28;20922;-54
2022/06/12 10:41:32;;;;;;;6.60;3.27;;;27.70;48.80;;;;;;5202282;28;20439;-51
2022/06/12 10:44:03;;;;;;;12.40;4.77;;;27.80;49.60;;;;;;5202666;28;20426;-54
2022/06/12 10:46:34;;;;;;;5.80;3.83;;;27.60;48.50;;;;;;5195357;28;20486;-54
2022/06/12 10:49:17;;;;;;;2.30;2.10;;;27.20;47.30;;;;;;5193821;28;20177;-56
2022/06/12 10:51:49;;;;;;;7.53;2.30;;;27.00;47.80;;;;;;5202099;28;20259;-54
2022/06/12 10:54:22;;;;;;;23.73;9.60;;;27.00;47.90;;;;;;5200361;28;20422;-54
2022/06/12 10:56:53;;;;;;;5.47;3.83;;;26.70;47.20;;;;;;5209010;28;20760;-55
2022/06/12 10:59:36;;;;;;;2.33;2.10;;;26.30;47.50;;;;;;5206488;28;20442;-53
2022/06/12 11:02:07;;;;;;;5.40;2.17;;;26.20;47.60;;;;;;5206765;28;20513;-54
2022/06/12 11:04:46;;;;;;;8.37;2.00;;;26.00;47.20;;;;;;5206780;28;20525;-54
2022/06/12 11:07:45;;;;;;;2.50;1.97;;;25.60;48.00;;;;;;5193866;28;20230;-55
2022/06/12 11:10:50;;;;;;;4.33;2.50;;;25.60;48.70;;;;;;5188932;28;20454;-52
2022/06/12 11:14:06;;;;;;;8.93;2.73;;;25.70;48.50;;;;;;5197585;28;20507;-55
2022/06/12 11:16:44;;;;;;;5.70;2.00;;;25.90;47.60;;;;;;5189102;28;21025;-56
2022/06/12 11:19:34;;;;;;;3.90;1.80;;;26.00;47.60;;;;;;5201039;28;20529;-56
2022/06/12 11:22:07;;;;;;;5.80;3.07;;;26.30;47.10;;;;;;5199870;28;20428;-55
2022/06/12 11:25:04;;;;;;;9.10;2.77;;;26.60;48.10;;;;;;5190030;28;20510;-55
2022/06/12 11:27:37;;;;;;;7.60;4.03;;;26.60;47.50;;;;;;5188426;28;20447;-55
2022/06/12 11:30:12;;;;;;;10.63;2.70;;;26.70;48.00;;;;;;5197498;28;20410;-51
2022/06/12 11:32:54;;;;;;;4.50;4.00;;;26.30;47.10;;;;;;5219484;28;20422;-54
2022/06/12 11:35:37;;;;;;;7.53;3.87;;;26.10;47.80;;;;;;5211757;28;20530;-55
2022/06/12 11:38:21;;;;;;;3.83;2.20;;;26.00;48.10;;;;;;5201831;28;20473;-55
2022/06/12 11:40:56;;;;;;;4.30;3.30;;;26.00;46.40;;;;;;5198454;28;20526;-59
2022/06/12 11:43:37;;;;;;;5.33;2.33;;;25.90;46.70;;;;;;5197829;28;20735;-55
2022/06/12 11:46:19;;;;;;;4.93;2.90;;;26.00;47.20;;;;;;5190617;28;20974;-57
2022/06/12 11:49:22;;;;;;;2.33;2.13;;;25.90;47.20;;;;;;5202321;28;20422;-58
2022/06/12 11:52:08;;;;;;;4.73;2.83;;;25.90;47.40;;;;;;5204588;28;20438;-57
2022/06/12 11:54:42;;;;;;;5.67;2.00;;;25.60;47.20;;;;;;5201577;28;20435;-57
2022/06/12 11:57:19;;;;;;;3.57;2.10;;;25.70;47.50;;;;;;5203717;22;20642;-56
2022/06/12 12:00:03;;;;;;;4.63;2.53;;;25.90;48.00;;;;;;5154928;28;20425;-56
2022/06/12 12:02:50;;;;;;;1.90;1.80;;;26.20;47.70;;;;;;5163229;28;20966;-57
2022/06/12 12:05:51;;;;;;;6.10;2.80;;;26.30;47.30;;;;;;5165113;28;20432;-57
2022/06/12 12:08:32;;;;;;;6.60;3.03;;;26.40;47.40;;;;;;5162540;28;20459;-59
2022/06/12 12:11:06;;;;;;;7.77;3.13;;;26.50;47.00;;;;;;5156044;28;20460;-56
2022/06/12 12:13:44;;;;;;;2.50;2.30;;;26.40;46.90;;;;;;5165962;28;20435;-58
2022/06/12 12:16:35;;;;;;;13.40;6.80;;;26.40;47.10;;;;;;5159329;28;20453;-58
2022/06/12 12:19:27;;;;;;;6.10;2.67;;;26.30;46.80;;;;;;5162156;28;20484;-56
2022/06/12 12:22:48;;;;;;;5.60;2.50;;;26.30;47.10;;;;;;5162601;28;20480;-57
2022/06/12 12:25:47;;;;;;;31.13;14.47;;;26.30;47.80;;;;;;5100438;29;21001;-57
2022/06/12 12:28:37;;;;;;;22.93;9.03;;;26.30;46.80;;;;;;5095360;29;20470;-58
2022/06/12 12:31:13;;;;;;;5.83;4.03;;;26.10;46.80;;;;;;5150013;28;20983;-56
2022/06/12 12:33:47;;;;;;;4.20;2.60;;;25.90;47.60;;;;;;5159082;28;20506;-58
2022/06/12 12:42:25;;;;;;;13.43;6.03;;;26.50;46.60;;;;;;5161549;28;20963;-58
2022/06/12 12:45:09;;;;;;;2.83;2.13;;;26.70;45.70;;;;;;5156917;28;20527;-57
2022/06/12 12:47:40;;;;;;;8.63;3.07;;;26.70;44.70;;;;;;5166033;28;21082;-57
2022/06/12 12:50:15;;;;;;;17.37;8.87;;;26.40;44.90;;;;;;5165841;28;20549;-58
2022/06/12 12:52:54;;;;;;;10.57;6.83;;;26.10;45.40;;;;;;5153212;28;20232;-57
2022/06/12 12:55:38;;;;;;;20.23;11.13;;;25.90;45.60;;;;;;5162431;28;20441;-58
2022/06/12 12:58:20;;;;;;;8.63;4.40;;;25.90;46.20;;;;;;5162904;28;20786;-57
2022/06/12 13:01:07;;;;;;;13.77;7.80;;;25.80;46.00;;;;;;5159607;28;20433;-56
2022/06/12 13:03:44;;;;;;;46.47;23.07;;;25.80;46.50;;;;;;5158213;28;20416;-56
2022/06/12 13:06:40;;;;;;;25.13;10.10;;;25.70;46.00;;;;;;5165657;28;20462;-58
2022/06/12 13:09:35;;;;;;;19.57;11.50;;;25.80;45.00;;;;;;5152535;28;20424;-57
2022/06/12 13:12:31;;;;;;;6.07;3.33;;;25.90;44.50;;;;;;5152732;28;20450;-57
2022/06/12 13:15:44;;;;;;;24.33;12.43;;;26.20;43.50;;;;;;5160502;28;20427;-58
2022/06/12 13:18:31;;;;;;;8.10;4.93;;;26.20;42.90;;;;;;5157719;28;20529;-56
2022/06/12 13:21:30;;;;;;;11.23;5.10;;;25.90;42.70;;;;;;5162433;28;20559;-57
2022/06/12 13:24:32;;;;;;;12.03;4.73;;;25.60;43.50;;;;;;5118438;28;20460;-57
2022/06/12 13:27:17;;;;;;;7.33;3.00;;;25.50;44.10;;;;;;5165118;28;20464;-56
2022/06/12 13:29:50;;;;;;;8.10;2.90;;;25.20;43.90;;;;;;5165056;28;20486;-57
2022/06/12 13:32:28;;;;;;;5.80;2.20;;;25.20;45.00;;;;;;5163684;28;20471;-57
2022/06/12 13:35:05;;;;;;;3.80;2.13;;;25.20;43.80;;;;;;5163427;28;20428;-57
2022/06/12 13:37:37;;;;;;;3.63;2.00;;;25.20;44.30;;;;;;5152399;28;20472;-56
2022/06/12 13:40:25;;;;;;;7.90;2.77;;;25.20;44.70;;;;;;5161392;28;20449;-56
2022/06/12 13:43:19;;;;;;;26.90;8.57;;;25.20;44.00;;;;;;5159919;28;20420;-57
2022/06/12 13:45:58;;;;;;;24.30;10.50;;;25.30;44.20;;;;;;5157582;28;20452;-56
2022/06/12 13:48:34;;;;;;;7.10;4.90;;;25.50;44.50;;;;;;5164768;28;20442;-56
2022/06/12 13:51:26;;;;;;;9.67;2.90;;;25.60;44.00;;;;;;5146714;28;20440;-59
2022/06/12 13:54:19;;;;;;;2.73;2.53;;;25.70;43.90;;;;;;5159424;28;21018;-56
2022/06/12 13:57:15;;;;;;;2.53;1.80;;;25.70;43.30;;;;;;5157357;28;21009;-57
2022/06/12 13:59:47;;;;;;;4.90;2.77;;;25.80;43.20;;;;;;5154243;28;20781;-57
2022/06/12 14:02:24;;;;;;;4.90;2.07;;;26.00;43.50;;;;;;5146756;28;20429;-56